Hudson, Michigan
Current Conditions -  °F | °C
As of 11:15 PM on Wednesday 26 Nov 2014 (Local Time) from KJYM Reporting Station
Overcast Overcast  
Wind Chill: 23°   Ceiling: 3600
Heat Index: 29°   Visibility: 10mi
Dew Point: 26°   Wind: 5mph
Humidity: 89%   Direction: 340°NNW
Pressure: 30.08"   Gusts: NA
Location:  41.86°N, 84.35°W
Report Text: KJYM 270415Z AUTO 34004KT 10SM OVC036 M02/M03 A3008 RMK AO2 T10191035
Loading
Personal Weather Stations






























Interactive Weather Map New forecast layout! Learn more

10-Day Weather Forecast

Advertisements
Track Severe Weather on mobile